createdAt,value
2019-03-31T00:00:26.361Z,68.9
2019-03-31T00:01:40.525Z,65.3
2019-03-31T00:02:54.718Z,63.8
2019-03-31T00:04:08.944Z,66.6
2019-03-31T00:05:23.231Z,67.4
2019-03-31T00:06:37.461Z,67.6
2019-03-31T00:07:51.518Z,69.1
2019-03-31T00:09:05.709Z,73.8
2019-03-31T00:10:19.918Z,73.2
2019-03-31T00:11:34.083Z,70.6
2019-03-31T00:12:48.288Z,74
2019-03-31T00:14:02.511Z,72.3
2019-03-31T00:15:16.653Z,69
2019-03-31T00:16:30.946Z,75.1
2019-03-31T00:17:45.117Z,73.8
2019-03-31T00:18:59.299Z,70.6
2019-03-31T00:20:13.522Z,74.1
2019-03-31T00:21:33.085Z,71.4
2019-03-31T00:22:41.877Z,76.7
2019-03-31T00:23:56.126Z,74.9
2019-03-31T00:25:10.275Z,77.1
2019-03-31T00:26:24.489Z,79.5
2019-03-31T00:27:38.704Z,78
2019-03-31T00:28:52.865Z,75.2
2019-03-31T00:30:07.170Z,78.9
2019-03-31T00:31:21.282Z,77.5
2019-03-31T00:32:35.487Z,82.1
2019-03-31T00:33:49.775Z,79.4
2019-03-31T00:35:03.958Z,74.9
2019-03-31T00:36:18.067Z,75.4
2019-03-31T00:37:32.360Z,79.8
2019-03-31T00:38:46.522Z,79
2019-03-31T00:40:00.671Z,79.9
2019-03-31T00:41:17.652Z,79.1
2019-03-31T00:42:32.977Z,80.8
2019-03-31T00:43:43.242Z,77.2
2019-03-31T00:44:57.424Z,79.1
2019-03-31T00:46:11.750Z,82.6
2019-03-31T00:47:25.807Z,78.8
2019-03-31T00:48:40.060Z,77.2
2019-03-31T00:49:54.294Z,80.3
2019-03-31T00:51:08.422Z,79.8
2019-03-31T00:52:22.576Z,84
2019-03-31T00:53:36.769Z,81.5
2019-03-31T00:54:51.009Z,81.4
2019-03-31T00:56:05.212Z,81.8
2019-03-31T00:57:19.369Z,83.4
2019-03-31T00:58:33.576Z,85.3
2019-03-31T00:59:47.783Z,78
2019-03-31T01:01:01.988Z,79.7
2019-03-31T01:02:16.189Z,78.6
2019-03-31T01:03:30.364Z,80.8
2019-03-31T01:04:44.569Z,79.1
2019-03-31T01:05:58.823Z,76
2019-03-31T01:07:13.120Z,76.1
2019-03-31T01:08:27.155Z,82.4
2019-03-31T01:09:41.398Z,85.2
2019-03-31T01:10:55.634Z,82.7
2019-03-31T01:12:09.722Z,79.6
2019-03-31T01:13:23.932Z,81.8
2019-03-31T01:14:38.129Z,85.2
2019-03-31T01:15:52.309Z,82.5
2019-03-31T01:17:06.515Z,83
2019-03-31T01:18:20.718Z,84.2
2019-03-31T01:19:34.906Z,80
2019-03-31T01:20:49.128Z,83.4
2019-03-31T01:22:03.450Z,84
2019-03-31T01:23:17.501Z,87.4
2019-03-31T01:24:31.705Z,87.3
2019-03-31T01:25:45.931Z,82.8
2019-03-31T01:27:00.099Z,87
2019-03-31T01:28:14.299Z,87
2019-03-31T01:29:28.571Z,88.6
2019-03-31T01:30:42.786Z,88.6
2019-03-31T01:31:56.918Z,92.3
2019-03-31T01:33:11.206Z,86.6
2019-03-31T01:34:25.309Z,84.6
2019-03-31T01:35:39.508Z,86.7
2019-03-31T01:36:53.741Z,91
2019-03-31T01:38:07.928Z,90.2
2019-03-31T01:39:22.106Z,91.5
2019-03-31T01:40:36.412Z,89
2019-03-31T01:41:50.490Z,86.2
2019-03-31T01:43:04.752Z,89.4
2019-03-31T01:44:18.942Z,91.5
2019-03-31T01:45:33.155Z,92
2019-03-31T01:46:47.299Z,90.3
2019-03-31T01:48:01.509Z,92.5
2019-03-31T01:49:15.708Z,91.1
2019-03-31T01:50:29.911Z,90
2019-03-31T01:51:44.147Z,90.1
2019-03-31T01:52:58.309Z,88.8
2019-03-31T01:54:12.672Z,87.3
2019-03-31T01:55:26.829Z,91.7
2019-03-31T01:56:40.929Z,93.8
2019-03-31T01:57:55.212Z,90.8
2019-03-31T01:59:09.353Z,98.4
2019-03-31T02:00:23.600Z,96.9
2019-03-31T02:01:37.775Z,93.1
2019-03-31T02:02:52.023Z,93.9
2019-03-31T02:04:06.187Z,92.2
2019-03-31T02:05:20.391Z,94.4
2019-03-31T02:06:34.609Z,101.2
2019-03-31T02:07:48.795Z,97.8
2019-03-31T02:09:03.004Z,97.6
2019-03-31T02:10:17.199Z,93.8
2019-03-31T02:11:31.407Z,100.2
2019-03-31T02:12:45.636Z,97.8
2019-03-31T02:13:59.836Z,93
2019-03-31T02:15:14.041Z,92.7
2019-03-31T02:16:28.329Z,98.1
2019-03-31T02:17:42.499Z,98.6
2019-03-31T02:18:56.647Z,99.2
2019-03-31T02:20:10.874Z,98.6
2019-03-31T02:21:27.435Z,99.9
2019-03-31T02:22:39.383Z,97.2
2019-03-31T02:23:53.550Z,96.2
2019-03-31T02:25:07.704Z,96.2
2019-03-31T02:26:21.996Z,96.2
2019-03-31T02:27:36.269Z,102.4
2019-03-31T02:28:50.399Z,99.7
2019-03-31T02:30:04.689Z,101.5
2019-03-31T02:31:18.764Z,101
2019-03-31T02:32:32.972Z,100.2
2019-03-31T02:33:47.164Z,101.6
2019-03-31T02:35:01.455Z,105.8
2019-03-31T02:36:15.581Z,105.4
2019-03-31T02:37:29.870Z,101.9
2019-03-31T02:38:44.069Z,102.9
2019-03-31T02:39:58.200Z,103.5
2019-03-31T02:41:13.208Z,105.1
2019-03-31T02:42:26.598Z,98.1
2019-03-31T02:43:40.853Z,111.2
2019-03-31T02:44:54.999Z,102.1
2019-03-31T02:46:09.303Z,99.6
2019-03-31T02:47:23.465Z,106.8
2019-03-31T02:48:37.627Z,103.1
2019-03-31T02:49:51.908Z,99.7
2019-03-31T02:51:06.081Z,100.5
2019-03-31T02:52:20.345Z,99.7
2019-03-31T02:53:34.467Z,104.8
2019-03-31T02:54:48.721Z,98.8
2019-03-31T02:56:02.937Z,100
2019-03-31T02:57:17.106Z,106.7
2019-03-31T02:58:31.320Z,104.9
2019-03-31T02:59:45.620Z,104.2
2019-03-31T03:00:59.837Z,98.2
2019-03-31T03:02:13.992Z,99.1
2019-03-31T03:03:28.133Z,99.9
2019-03-31T03:04:42.338Z,103.2
2019-03-31T03:06:00.429Z,96.9
2019-03-31T03:07:11.269Z,96.2
2019-03-31T03:08:25.026Z,95.2
2019-03-31T03:09:39.464Z,93.7
2019-03-31T03:10:53.359Z,97.2
2019-03-31T03:12:07.585Z,95.7
2019-03-31T03:13:21.821Z,94.2
2019-03-31T03:14:36.001Z,97.5
2019-03-31T03:15:50.257Z,93.1
2019-03-31T03:17:04.477Z,96.7
2019-03-31T03:18:18.579Z,97.9
2019-03-31T03:19:32.881Z,94.5
2019-03-31T03:20:47.035Z,94.9
2019-03-31T03:22:01.269Z,94.2
2019-03-31T03:23:15.500Z,91.9
2019-03-31T03:24:29.693Z,88.5
2019-03-31T03:25:43.845Z,84.4
2019-03-31T03:26:58.003Z,88.7
2019-03-31T03:28:12.263Z,88.7
2019-03-31T03:29:26.404Z,87.5
2019-03-31T03:30:40.634Z,85.7
2019-03-31T03:31:54.810Z,82.3
2019-03-31T03:33:09.075Z,86
2019-03-31T03:34:23.229Z,86.1
2019-03-31T03:35:37.458Z,82.3
2019-03-31T03:36:51.752Z,83.2
2019-03-31T03:38:05.860Z,86.4
2019-03-31T03:39:20.220Z,86.8
2019-03-31T03:40:34.398Z,81.3
2019-03-31T03:41:48.572Z,82.8
2019-03-31T03:43:02.779Z,82.7
2019-03-31T03:44:16.990Z,85.9
2019-03-31T03:45:31.169Z,82.8
2019-03-31T03:46:45.279Z,79.8
2019-03-31T03:47:59.622Z,88.2
2019-03-31T03:49:13.912Z,83.4
2019-03-31T03:50:27.986Z,76.3
2019-03-31T03:51:42.249Z,82.1
2019-03-31T03:52:56.354Z,83.6
2019-03-31T03:54:10.551Z,79.3
2019-03-31T03:55:24.782Z,72.9
2019-03-31T03:56:39.053Z,79
2019-03-31T03:57:53.180Z,73.7
2019-03-31T03:59:07.475Z,78.5
2019-03-31T04:00:21.647Z,84.3
2019-03-31T04:01:35.820Z,80.2
2019-03-31T04:02:50.025Z,81.2
2019-03-31T04:04:04.234Z,80.4
2019-03-31T04:05:18.453Z,76.8
2019-03-31T04:06:32.672Z,79
2019-03-31T04:07:48.157Z,74.2
2019-03-31T04:09:01.133Z,73.9
2019-03-31T04:10:15.277Z,73.8
2019-03-31T04:11:29.459Z,81.7
2019-03-31T04:12:43.892Z,68.5
2019-03-31T04:13:57.871Z,72.5
2019-03-31T04:15:12.092Z,78.3
2019-03-31T04:16:26.270Z,75.4
2019-03-31T04:17:40.443Z,71
2019-03-31T04:18:54.641Z,66.8
2019-03-31T04:20:08.834Z,69.6
2019-03-31T04:21:23.125Z,66.6
2019-03-31T04:22:37.250Z,67.9
2019-03-31T04:23:51.508Z,73.8
2019-03-31T04:25:06.096Z,68.3
2019-03-31T04:26:19.843Z,69.7
2019-03-31T04:27:34.056Z,73.9
2019-03-31T04:28:48.309Z,68.9
2019-03-31T04:30:02.530Z,71.1
2019-03-31T04:31:16.667Z,67.6
2019-03-31T04:32:30.864Z,69.5
2019-03-31T04:33:45.134Z,68.8
2019-03-31T04:34:59.332Z,68.6
2019-03-31T04:36:13.573Z,64.4
2019-03-31T04:37:27.687Z,67.9
2019-03-31T04:38:41.881Z,66.1
2019-03-31T04:39:56.146Z,68.2
2019-03-31T04:41:10.280Z,66.8
2019-03-31T04:42:24.485Z,65.7
2019-03-31T04:43:38.684Z,68.4
2019-03-31T04:44:52.986Z,64.5
2019-03-31T04:46:07.146Z,63.6
2019-03-31T04:47:21.348Z,63.4
2019-03-31T04:48:35.585Z,64.6
2019-03-31T04:49:49.727Z,61.1
2019-03-31T04:51:04.019Z,61.1
2019-03-31T04:52:18.131Z,62.2
2019-03-31T04:53:32.396Z,63.7
2019-03-31T04:54:46.531Z,63
2019-03-31T04:56:00.887Z,61.2
2019-03-31T04:57:14.925Z,61.3
2019-03-31T04:58:29.170Z,66.8
2019-03-31T04:59:43.351Z,63.7
2019-03-31T05:00:57.575Z,66.6
2019-03-31T05:02:11.774Z,61.6
2019-03-31T05:03:25.958Z,61.7
2019-03-31T05:04:40.273Z,62
2019-03-31T05:05:54.399Z,63.4
2019-03-31T05:07:08.626Z,63.9
2019-03-31T05:08:22.802Z,58.3
2019-03-31T05:09:37.063Z,58.9
2019-03-31T05:10:51.337Z,60.1
2019-03-31T05:12:05.405Z,56.6
2019-03-31T05:13:19.607Z,62.7
2019-03-31T05:14:33.953Z,62.6
2019-03-31T05:15:48.102Z,65.4
2019-03-31T05:17:02.212Z,60.4
2019-03-31T05:18:16.416Z,63.9
2019-03-31T05:19:30.622Z,62.2
2019-03-31T05:20:47.216Z,61.5
2019-03-31T05:21:59.989Z,62.9
2019-03-31T05:23:13.271Z,60.7
2019-03-31T05:24:27.431Z,64
2019-03-31T05:25:41.644Z,64.1
2019-03-31T05:26:55.909Z,62.3
2019-03-31T05:28:10.042Z,67
2019-03-31T05:29:24.276Z,64.3
2019-03-31T05:30:38.474Z,62.1
2019-03-31T05:31:52.700Z,63.5
2019-03-31T05:33:07.043Z,61.8
2019-03-31T05:34:21.050Z,62.3
2019-03-31T05:35:35.294Z,59.2
2019-03-31T05:36:49.507Z,63.8
2019-03-31T05:38:03.654Z,64.9
2019-03-31T05:39:17.955Z,62.9
2019-03-31T05:40:32.034Z,62.3
2019-03-31T05:41:46.265Z,59.7
2019-03-31T05:43:00.482Z,61.8
2019-03-31T05:44:14.651Z,61.4
2019-03-31T05:45:28.952Z,57.7
2019-03-31T05:46:43.047Z,60.1
2019-03-31T05:47:57.236Z,61.6
2019-03-31T05:49:11.443Z,63.4
2019-03-31T05:50:25.633Z,61.1
2019-03-31T05:51:40.484Z,61.4
2019-03-31T05:52:54.040Z,60.8
2019-03-31T05:54:08.229Z,63.1
2019-03-31T05:55:22.516Z,59.3
2019-03-31T05:56:36.662Z,62.5
2019-03-31T05:57:50.853Z,58.4
2019-03-31T05:59:05.171Z,63.7
2019-03-31T06:00:23.457Z,59.4
2019-03-31T06:01:36.148Z,63.3
2019-03-31T06:02:47.611Z,61.1
2019-03-31T06:04:01.797Z,56.9
2019-03-31T06:05:15.996Z,60.7
2019-03-31T06:06:30.227Z,60.6
2019-03-31T06:07:44.412Z,59.2
2019-03-31T06:08:58.604Z,60.7
2019-03-31T06:10:12.892Z,58.8
2019-03-31T06:11:26.996Z,59.1
2019-03-31T06:12:41.275Z,52.2
2019-03-31T06:13:55.408Z,55.8
2019-03-31T06:15:09.599Z,56.8
2019-03-31T06:16:23.790Z,58.1
2019-03-31T06:17:37.982Z,57.4
2019-03-31T06:18:52.257Z,55.3
2019-03-31T06:20:06.392Z,57.3
2019-03-31T06:21:20.662Z,58.9
2019-03-31T06:22:34.760Z,54.6
2019-03-31T06:23:49.177Z,54
2019-03-31T06:25:03.336Z,57.1
2019-03-31T06:26:17.507Z,47.1
2019-03-31T06:27:31.557Z,48.7
2019-03-31T06:28:45.755Z,52.7
2019-03-31T06:30:00.014Z,48.3
2019-03-31T06:31:14.158Z,48.5
2019-03-31T06:32:28.516Z,53.2
2019-03-31T06:33:42.677Z,49.3
2019-03-31T06:34:56.751Z,48.7
2019-03-31T06:36:10.940Z,49.7
2019-03-31T06:37:25.141Z,45.2
2019-03-31T06:38:39.410Z,50.4
2019-03-31T06:39:53.523Z,43.2
2019-03-31T06:41:07.800Z,50.8
2019-03-31T06:42:21.913Z,41.1
2019-03-31T06:43:36.172Z,42.5
2019-03-31T06:44:50.329Z,44.3
2019-03-31T06:46:04.597Z,47.7
2019-03-31T06:47:18.738Z,45.5
2019-03-31T06:48:33.064Z,42.9
2019-03-31T06:49:47.065Z,41.6
2019-03-31T06:51:01.261Z,38.2
2019-03-31T06:52:15.604Z,39.5
2019-03-31T06:53:29.611Z,40.6
2019-03-31T06:54:43.878Z,42.6
2019-03-31T06:55:58.051Z,37.5
2019-03-31T06:57:12.161Z,40.7
2019-03-31T06:58:26.436Z,38.1
2019-03-31T06:59:40.527Z,36.9
2019-03-31T07:00:54.789Z,38.3
2019-03-31T07:02:08.930Z,40
2019-03-31T07:03:23.081Z,38.1
2019-03-31T07:04:37.224Z,37.9
2019-03-31T07:05:51.555Z,41.6
2019-03-31T07:07:05.969Z,37.6
2019-03-31T07:08:19.857Z,38.9
2019-03-31T07:09:33.893Z,36.5
2019-03-31T07:10:48.190Z,36.7
2019-03-31T07:12:02.744Z,34.5
2019-03-31T07:13:19.007Z,38.3
2019-03-31T07:14:32.458Z,36.2
2019-03-31T07:15:44.745Z,34.9
2019-03-31T07:16:59.144Z,33.9
2019-03-31T07:18:13.127Z,36.3
2019-03-31T07:19:27.249Z,36.3
2019-03-31T07:20:41.380Z,33.3
2019-03-31T07:21:55.562Z,33.2
2019-03-31T07:23:09.768Z,32.9
2019-03-31T07:24:23.852Z,32
2019-03-31T07:25:38.017Z,30
2019-03-31T07:26:52.247Z,28
2019-03-31T07:28:06.355Z,31.6
2019-03-31T07:29:20.477Z,29
2019-03-31T07:30:34.666Z,32.1
2019-03-31T07:31:48.873Z,30
2019-03-31T07:33:02.932Z,30.2
2019-03-31T07:34:17.059Z,31
2019-03-31T07:35:31.226Z,26.9
2019-03-31T07:36:50.416Z,29.3
2019-03-31T07:37:59.500Z,26.6
2019-03-31T07:39:13.671Z,30.7
2019-03-31T07:40:27.813Z,30.7
2019-03-31T07:41:41.986Z,30.9
2019-03-31T07:42:56.206Z,32.1
2019-03-31T07:44:10.276Z,30.6
2019-03-31T07:45:24.437Z,30.3
2019-03-31T07:46:38.597Z,29.7
2019-03-31T07:47:52.754Z,30.8
2019-03-31T07:49:07.075Z,32.2
2019-03-31T07:50:21.057Z,30.7
2019-03-31T07:51:35.340Z,27.2
2019-03-31T07:52:49.440Z,31.2
2019-03-31T07:54:03.524Z,30.9
2019-03-31T07:55:17.699Z,30.4
2019-03-31T07:56:31.911Z,29.9
2019-03-31T07:57:50.895Z,29.9
2019-03-31T07:59:02.876Z,28.1
2019-03-31T08:00:14.415Z,29.2
2019-03-31T08:01:28.520Z,28.7
2019-03-31T08:02:42.776Z,28.6
2019-03-31T08:03:56.873Z,27.7
2019-03-31T08:05:10.909Z,27.2
2019-03-31T08:06:25.096Z,29.6
2019-03-31T08:07:39.322Z,29.7
2019-03-31T08:08:53.408Z,25.7
2019-03-31T08:10:07.564Z,23.4
2019-03-31T08:11:21.859Z,27.4
2019-03-31T08:12:36.004Z,30.1
2019-03-31T08:13:50.075Z,24.8
2019-03-31T08:15:04.322Z,24.6
2019-03-31T08:16:18.428Z,26.5
2019-03-31T08:17:32.636Z,25.2
2019-03-31T08:18:46.757Z,23.4
2019-03-31T08:20:01.037Z,28.3
2019-03-31T08:21:15.146Z,23.3
2019-03-31T08:22:29.249Z,23.4
2019-03-31T08:23:43.501Z,22.3
2019-03-31T08:24:57.632Z,22.8
2019-03-31T08:26:11.832Z,24.5
2019-03-31T08:27:25.963Z,22.7
2019-03-31T08:28:40.132Z,22.7
2019-03-31T08:29:54.367Z,21.9
2019-03-31T08:31:08.503Z,20.3
2019-03-31T08:32:22.665Z,21.1
2019-03-31T08:33:36.834Z,20.6
2019-03-31T08:34:51.058Z,18.3
2019-03-31T08:36:05.280Z,20.3
2019-03-31T08:37:19.358Z,19.6
2019-03-31T08:38:33.548Z,20.4
2019-03-31T08:39:47.708Z,18.1
2019-03-31T08:41:01.871Z,18.2
2019-03-31T08:42:16.132Z,17.5
2019-03-31T08:43:30.240Z,19.1
2019-03-31T08:44:44.594Z,16.6
2019-03-31T08:45:58.585Z,20
2019-03-31T08:47:12.845Z,19.7
2019-03-31T08:48:26.938Z,15.8
2019-03-31T08:49:41.119Z,17
2019-03-31T08:50:55.416Z,17.1
2019-03-31T08:52:09.489Z,17.9
2019-03-31T08:53:23.742Z,16
2019-03-31T08:54:37.840Z,18.9
2019-03-31T08:55:52.010Z,14.6
2019-03-31T08:57:06.175Z,15.8
2019-03-31T08:58:20.407Z,14.9
2019-03-31T08:59:34.527Z,19.1
2019-03-31T09:00:48.813Z,16.8
2019-03-31T09:02:02.951Z,16.1
2019-03-31T09:03:17.010Z,13.2
2019-03-31T09:04:31.152Z,14.6
2019-03-31T09:05:45.306Z,16
2019-03-31T09:06:59.444Z,13.9
2019-03-31T09:08:13.649Z,14.9
2019-03-31T09:09:27.723Z,17.1
2019-03-31T09:10:41.875Z,13.8
2019-03-31T09:11:56.111Z,16.5
2019-03-31T09:13:10.163Z,11.8
2019-03-31T09:14:24.433Z,14.1
2019-03-31T09:15:38.508Z,14.8
2019-03-31T09:16:52.618Z,13
2019-03-31T09:18:06.815Z,13.1
2019-03-31T09:19:20.924Z,13.8
2019-03-31T09:20:35.111Z,16
2019-03-31T09:21:49.258Z,12.4
2019-03-31T09:23:03.412Z,12.9
2019-03-31T09:24:17.578Z,13.3
2019-03-31T09:25:31.805Z,13.3
2019-03-31T09:26:46.217Z,11.4
2019-03-31T09:28:00.089Z,11.8
2019-03-31T09:29:14.215Z,14.8
2019-03-31T09:30:28.382Z,13.8
2019-03-31T09:31:42.674Z,13.3
2019-03-31T09:32:56.781Z,13.2
2019-03-31T09:34:10.927Z,13.4
2019-03-31T09:35:25.005Z,13.2
2019-03-31T09:36:39.160Z,10.3
2019-03-31T09:37:53.431Z,11.5
2019-03-31T09:39:07.471Z,11.2
2019-03-31T09:40:21.617Z,11.2
2019-03-31T09:41:35.770Z,11.2
2019-03-31T09:42:49.962Z,11.7
2019-03-31T09:44:04.091Z,11.6
2019-03-31T09:45:18.257Z,12.2
2019-03-31T09:46:32.639Z,11.2
2019-03-31T09:47:46.586Z,11.2
2019-03-31T09:49:00.863Z,10.3
2019-03-31T09:50:15.041Z,12
2019-03-31T09:51:29.073Z,11.2
2019-03-31T09:52:43.247Z,13.4
2019-03-31T09:53:57.491Z,10.2
2019-03-31T09:55:11.576Z,12.1
2019-03-31T09:56:25.815Z,11.3
2019-03-31T09:57:39.953Z,10.2
2019-03-31T09:58:54.049Z,11.1
2019-03-31T10:00:08.219Z,8.1
2019-03-31T10:01:22.379Z,8.5
2019-03-31T10:02:36.647Z,10.1
2019-03-31T10:03:50.768Z,10.2
2019-03-31T10:05:04.840Z,10.5
2019-03-31T10:06:19.003Z,8.3
2019-03-31T10:07:33.193Z,9.2
2019-03-31T10:08:47.360Z,9.8
2019-03-31T10:10:01.490Z,11.1
2019-03-31T10:11:15.672Z,10.7
2019-03-31T10:12:29.799Z,11.8
2019-03-31T10:13:44.008Z,11.1
2019-03-31T10:14:58.145Z,9.9
2019-03-31T10:16:12.261Z,10.1
2019-03-31T10:17:26.443Z,11.4
2019-03-31T10:18:40.588Z,10.7
2019-03-31T10:19:54.813Z,9
2019-03-31T10:21:08.927Z,11
2019-03-31T10:22:23.098Z,8.4
2019-03-31T10:23:37.262Z,8.4
2019-03-31T10:24:51.491Z,9.4
2019-03-31T10:26:05.628Z,9.4
2019-03-31T10:27:19.749Z,9.7
2019-03-31T10:28:33.893Z,9.3
2019-03-31T10:29:48.067Z,8.9
2019-03-31T10:31:02.300Z,9.4
2019-03-31T10:32:16.345Z,8.7
2019-03-31T10:33:30.537Z,8
2019-03-31T10:34:44.651Z,10.2
2019-03-31T10:35:58.822Z,10.4
2019-03-31T10:37:12.961Z,10.4
2019-03-31T10:38:27.259Z,9.9
2019-03-31T10:39:41.399Z,10.2
2019-03-31T10:40:55.489Z,10.2
2019-03-31T10:42:09.740Z,11.2
2019-03-31T10:43:23.757Z,11.2
2019-03-31T10:44:37.909Z,10.4
2019-03-31T10:45:52.044Z,10.5
2019-03-31T10:47:06.175Z,10.5
2019-03-31T10:48:20.741Z,12.3
2019-03-31T10:49:34.565Z,12.9
2019-03-31T10:50:48.743Z,10.6
2019-03-31T10:52:03.320Z,11.4
2019-03-31T10:53:16.951Z,11.6
2019-03-31T10:54:31.090Z,12.2
2019-03-31T10:55:45.259Z,11.3
2019-03-31T10:56:59.420Z,12.8
2019-03-31T10:58:13.651Z,12.2
2019-03-31T10:59:27.737Z,12.3
2019-03-31T11:00:41.851Z,9.5
2019-03-31T11:01:56.037Z,11.3
2019-03-31T11:03:10.145Z,11.1
2019-03-31T11:04:24.321Z,12.3
2019-03-31T11:05:38.670Z,11.6
2019-03-31T11:06:52.658Z,12.2
2019-03-31T11:08:06.772Z,12.9
2019-03-31T11:09:21.102Z,13.2
2019-03-31T11:10:35.023Z,11.6
2019-03-31T11:11:49.170Z,12.7
2019-03-31T11:13:03.393Z,13.9
2019-03-31T11:14:17.966Z,11.2
2019-03-31T11:15:31.772Z,13.8
2019-03-31T11:16:45.810Z,12.8
2019-03-31T11:17:59.953Z,12.4
2019-03-31T11:19:14.105Z,12.4
2019-03-31T11:20:28.292Z,13.4
2019-03-31T11:21:42.506Z,15
2019-03-31T11:22:56.625Z,16.4
2019-03-31T11:24:10.795Z,14.2
2019-03-31T11:25:24.950Z,15.4
2019-03-31T11:26:39.195Z,15.9
2019-03-31T11:27:53.310Z,16.2
2019-03-31T11:29:07.570Z,16.3
2019-03-31T11:30:21.722Z,14.1
2019-03-31T11:31:35.836Z,16.2
2019-03-31T11:32:50.018Z,15.7
2019-03-31T11:34:04.177Z,13.7
2019-03-31T11:35:18.359Z,14.8
2019-03-31T11:36:32.558Z,14.5
2019-03-31T11:37:46.869Z,17
2019-03-31T11:39:00.869Z,15.9
2019-03-31T11:40:15.042Z,15.1
2019-03-31T11:41:29.203Z,15.2
2019-03-31T11:42:43.452Z,18.1
2019-03-31T11:43:57.625Z,15.7
2019-03-31T11:45:11.803Z,15.3
2019-03-31T11:46:25.854Z,13.8
2019-03-31T11:47:42.998Z,15.4
2019-03-31T11:48:54.226Z,15.6
2019-03-31T11:50:08.345Z,13.5
2019-03-31T11:51:22.505Z,14
2019-03-31T11:52:36.963Z,12
2019-03-31T11:53:50.807Z,11.6
2019-03-31T11:55:04.958Z,11.8
2019-03-31T11:56:19.134Z,14.5
2019-03-31T11:57:33.265Z,13.8
2019-03-31T11:58:47.442Z,11.5
2019-03-31T12:00:01.635Z,12.7
2019-03-31T12:01:15.737Z,10.9
2019-03-31T12:02:29.864Z,13.1
2019-03-31T12:03:43.996Z,11.8
2019-03-31T12:04:58.244Z,11.1
2019-03-31T12:06:12.301Z,9.5
2019-03-31T12:07:26.474Z,9.8
2019-03-31T12:08:40.618Z,10.8
2019-03-31T12:09:54.746Z,11.4
2019-03-31T12:11:08.963Z,9.4
2019-03-31T12:12:23.103Z,7.8
2019-03-31T12:13:37.193Z,10.3
2019-03-31T12:14:51.553Z,10.5
2019-03-31T12:16:05.548Z,8.6
2019-03-31T12:17:19.627Z,9.4
2019-03-31T12:18:33.852Z,9.6
2019-03-31T12:19:47.928Z,10
2019-03-31T12:21:02.074Z,8
2019-03-31T12:22:16.238Z,10.2
2019-03-31T12:23:30.419Z,8.9
2019-03-31T12:24:44.508Z,8
2019-03-31T12:25:58.681Z,8.3
2019-03-31T12:27:12.805Z,7.3
2019-03-31T12:28:26.942Z,6.1
2019-03-31T12:29:41.062Z,6.7
2019-03-31T12:30:55.234Z,6.5
2019-03-31T12:32:09.331Z,7.4
2019-03-31T12:33:23.464Z,7.4
2019-03-31T12:34:37.598Z,7.9
2019-03-31T12:35:51.694Z,5.9
2019-03-31T12:37:05.800Z,8.1
2019-03-31T12:38:19.952Z,7.2
2019-03-31T12:39:34.170Z,7
2019-03-31T12:40:48.245Z,6.5
2019-03-31T12:42:02.350Z,6.7
2019-03-31T12:43:16.398Z,6.9
2019-03-31T12:44:30.715Z,6.5
2019-03-31T12:45:44.616Z,6.8
2019-03-31T12:46:58.812Z,6.3
2019-03-31T12:48:12.890Z,7.1
2019-03-31T12:49:26.965Z,6
2019-03-31T12:50:41.092Z,6.2
2019-03-31T12:51:55.282Z,5.8
2019-03-31T12:53:09.336Z,7.2
2019-03-31T12:54:23.449Z,7.6
2019-03-31T12:55:37.602Z,7.5
2019-03-31T12:56:51.717Z,6.5
2019-03-31T12:58:05.857Z,6.7
2019-03-31T12:59:20.056Z,5.8
2019-03-31T13:00:34.171Z,6.5
2019-03-31T13:01:48.409Z,8.9
2019-03-31T13:03:02.425Z,6.8
2019-03-31T13:04:16.587Z,7.9
2019-03-31T13:05:30.730Z,10.8
2019-03-31T13:06:45.014Z,8
2019-03-31T13:07:59.031Z,8
2019-03-31T13:09:13.190Z,7.5
2019-03-31T13:10:27.320Z,6.7
2019-03-31T13:11:41.456Z,5.7
2019-03-31T13:12:55.595Z,6.8
2019-03-31T13:14:09.894Z,9.6
2019-03-31T13:15:24.018Z,8
2019-03-31T13:16:38.174Z,8.1
2019-03-31T13:17:52.286Z,9.9
2019-03-31T13:19:06.537Z,7.4
2019-03-31T13:20:20.643Z,7.8
2019-03-31T13:21:34.779Z,7
2019-03-31T13:22:48.827Z,7.2
2019-03-31T13:24:03.121Z,6.4
2019-03-31T13:25:17.101Z,8
2019-03-31T13:26:31.562Z,7.3
2019-03-31T13:27:45.416Z,5.2
2019-03-31T13:28:59.600Z,5.9
2019-03-31T13:30:13.556Z,8.1
2019-03-31T13:31:27.777Z,10
2019-03-31T13:32:41.763Z,5.7
2019-03-31T13:33:55.974Z,7.5
2019-03-31T13:35:09.968Z,6.7
2019-03-31T13:36:24.101Z,6.2
2019-03-31T13:37:38.243Z,4.8
2019-03-31T13:38:52.297Z,6.3
2019-03-31T13:40:06.417Z,4.6
2019-03-31T13:41:20.512Z,6.8
2019-03-31T13:42:34.637Z,7.3
2019-03-31T13:43:48.693Z,5.3
2019-03-31T13:45:02.864Z,6.7
2019-03-31T13:46:17.006Z,5.7
2019-03-31T13:47:31.057Z,7.2
2019-03-31T13:48:45.277Z,7.9
2019-03-31T13:49:59.292Z,6.9
2019-03-31T13:51:13.423Z,6
2019-03-31T13:52:27.612Z,6.4
2019-03-31T13:53:41.799Z,6.2
2019-03-31T13:54:55.848Z,7.9
2019-03-31T13:56:10.086Z,7.7
2019-03-31T13:57:24.107Z,7.7
2019-03-31T13:58:38.236Z,6.8
2019-03-31T13:59:52.347Z,6.9
2019-03-31T14:01:11.225Z,7
2019-03-31T14:02:20.648Z,5.8
2019-03-31T14:03:34.691Z,5.4
2019-03-31T14:04:48.824Z,7.3
2019-03-31T14:06:02.914Z,8.3
2019-03-31T14:07:17.016Z,9
2019-03-31T14:08:31.125Z,6.1
2019-03-31T14:09:45.246Z,6.6
2019-03-31T14:10:59.403Z,5.9
2019-03-31T14:12:13.497Z,6.6
2019-03-31T14:13:27.686Z,6.2
2019-03-31T14:14:41.701Z,6.4
2019-03-31T14:15:55.882Z,8.4
2019-03-31T14:17:09.973Z,6
2019-03-31T14:18:24.119Z,7.8
2019-03-31T14:19:38.141Z,6.8
2019-03-31T14:20:52.326Z,6.7
2019-03-31T14:22:06.400Z,5
2019-03-31T14:23:25.182Z,6.9
2019-03-31T14:24:34.617Z,6.3
2019-03-31T14:25:48.762Z,9.3
2019-03-31T14:27:02.876Z,7.2
2019-03-31T14:28:16.981Z,6.4
2019-03-31T14:29:31.132Z,6.4
2019-03-31T14:30:45.347Z,7.9
2019-03-31T14:31:59.405Z,7.1
2019-03-31T14:33:13.537Z,6.9
2019-03-31T14:34:27.644Z,6.3
2019-03-31T14:35:41.778Z,6.2
2019-03-31T14:36:55.910Z,6.7
2019-03-31T14:38:09.989Z,7.2
2019-03-31T14:39:24.095Z,7.3
2019-03-31T14:40:38.266Z,7.5
2019-03-31T14:41:52.464Z,7.8
2019-03-31T14:43:06.665Z,9.4
2019-03-31T14:44:20.671Z,8.7
2019-03-31T14:45:34.669Z,5.8
2019-03-31T14:46:48.879Z,7.7
2019-03-31T14:48:03.001Z,7.3
2019-03-31T14:49:17.097Z,7
2019-03-31T14:50:36.211Z,8.9
2019-03-31T14:51:45.337Z,6.9
2019-03-31T14:52:59.485Z,7.2
2019-03-31T14:54:13.622Z,7.1
2019-03-31T14:55:27.840Z,8.1
2019-03-31T14:56:41.861Z,8.2
2019-03-31T14:57:55.999Z,8.7
2019-03-31T14:59:10.199Z,10.1
2019-03-31T15:00:24.248Z,8.6
2019-03-31T15:01:38.420Z,6.9
2019-03-31T15:02:52.489Z,9
2019-03-31T15:04:06.622Z,7.1
2019-03-31T15:05:20.756Z,8.2
2019-03-31T15:06:34.903Z,9
2019-03-31T15:07:49.013Z,7.3
2019-03-31T15:09:03.136Z,8.1
2019-03-31T15:10:17.257Z,9.1
2019-03-31T15:11:31.376Z,9.9
2019-03-31T15:12:45.502Z,7.6
2019-03-31T15:13:59.618Z,10.2
2019-03-31T15:15:13.741Z,8.2
2019-03-31T15:16:27.915Z,8.1
2019-03-31T15:17:41.976Z,7.1
2019-03-31T15:18:56.123Z,7.8
2019-03-31T15:20:10.252Z,6.4
2019-03-31T15:21:24.356Z,8.4
2019-03-31T15:22:38.471Z,6.2
2019-03-31T15:23:52.646Z,10.2
2019-03-31T15:25:06.815Z,7.9
2019-03-31T15:26:20.847Z,7.8
2019-03-31T15:27:39.330Z,6.8
2019-03-31T15:28:49.180Z,6.8
2019-03-31T15:30:03.311Z,7.6
2019-03-31T15:31:17.362Z,7.1
2019-03-31T15:32:31.672Z,8.3
2019-03-31T15:33:45.599Z,8.1
2019-03-31T15:34:59.789Z,8.6
2019-03-31T15:36:13.961Z,7.1
2019-03-31T15:37:27.993Z,7.5
2019-03-31T15:38:42.127Z,6.3
2019-03-31T15:39:56.257Z,7.4
2019-03-31T15:41:10.383Z,8
2019-03-31T15:42:24.513Z,9
2019-03-31T15:43:38.680Z,8
2019-03-31T15:44:53.013Z,7.7
2019-03-31T15:46:06.915Z,6.7
2019-03-31T15:47:21.136Z,6.3
2019-03-31T15:48:35.295Z,8.6
2019-03-31T15:49:49.294Z,7
2019-03-31T15:51:03.429Z,5.8
2019-03-31T15:52:17.551Z,9.6
2019-03-31T15:53:31.662Z,8.5
2019-03-31T15:54:45.868Z,8.8
2019-03-31T15:56:00.694Z,7
2019-03-31T15:57:14.037Z,8.2
2019-03-31T15:58:28.219Z,7.7
2019-03-31T15:59:42.329Z,7.1
2019-03-31T16:00:56.497Z,8
2019-03-31T16:02:10.628Z,8.7
2019-03-31T16:03:24.720Z,8.2
2019-03-31T16:04:38.860Z,7.9
2019-03-31T16:05:52.902Z,6.8
2019-03-31T16:07:07.055Z,7.5
2019-03-31T16:08:21.274Z,6.8
2019-03-31T16:09:40.197Z,7.9
2019-03-31T16:10:49.621Z,10
2019-03-31T16:12:03.654Z,9.5
2019-03-31T16:13:17.836Z,8.4
2019-03-31T16:14:31.926Z,9.2
2019-03-31T16:15:45.990Z,8
2019-03-31T16:17:00.132Z,9.5
2019-03-31T16:18:14.267Z,8.8
2019-03-31T16:19:28.458Z,9.5
2019-03-31T16:20:42.541Z,6.9
2019-03-31T16:21:56.807Z,6.8
2019-03-31T16:23:10.836Z,7
2019-03-31T16:24:24.987Z,7.5
2019-03-31T16:25:39.168Z,9.8
2019-03-31T16:26:53.813Z,6.6
2019-03-31T16:28:07.442Z,9.2
2019-03-31T16:29:21.661Z,8.6
2019-03-31T16:30:35.753Z,6.8
2019-03-31T16:31:49.955Z,6.7
2019-03-31T16:34:18.181Z,7
2019-03-31T16:35:32.371Z,6.5
2019-03-31T16:36:46.601Z,7.3
2019-03-31T16:38:00.663Z,7.1
2019-03-31T16:39:14.871Z,7.3
2019-03-31T16:40:29.056Z,8.2
2019-03-31T16:41:43.143Z,6.6
2019-03-31T16:42:57.335Z,7.6